메인 페이지
METAR-TAF:

METAR-TAF

공항 :

나가사키 공항

나가사키, 일본

위도: 32-55N, 경도: 129-55E, 고도: 2m

현재 날씨관측

예보는 57분 전, 04:00시(UTC)에 발표되었습니다.
6kt남서풍과 서북서풍을 오가는
온도 23°C
습도 47%
기압 1011 hPa
시정 10km 이상
고도 4000ft 상공 구름 조금
고도 13000ft 상공 구름 보통
구름 많음

METAR: RJFU 160400Z 27006KT 230V300 9999 FEW040 SCT130 BKN/// 23/11 Q1011

시각: 13:57 (04:57 UTC)

예보

예보는 5 시간 52분 전, 23:05시(UTC)에 발표되었습니다.
예보 대상 시간: 16일 00시부터 17일 06시까지 (UTC)
북북서12kt
시정 10km 이상
고도 4000ft 상공 구름 조금
고도 5000ft 상공 구름 보통
전환 중
16일 15시부터 16일 18시까지 (UTC)
남동4kt
전환 중
16일 21시부터 17일 00시까지 (UTC)
북북서11kt

TAF: RJFU 152305Z 1600/1706 34012KT 9999 FEW040 SCT050 BECMG 1615/1618 14004KT BECMG 1621/1700 33011KT

4,000개 이상의 공항 관측 자료 및 예보 (METAR 및 TAF 보고).

지도상에서 검색 가능한 기상관측소가 노란 점과 빨간 점으로 표시되어 있습니다.

기상관측소 명을 보려면 표시 위로 마우스를 이동하세요.

날씨 관측과 예보를 보려면 클릭하세요.

지도 변경 : 확대하려면 엑스 표시가 있는 녹색 버튼, 축소하려면 빼기 표시가 있는 녹색 버튼, 다음 페이지의 지도를 보려면 녹색 화살표를 클릭하세요.


METAR-TAF: